Time;durP1;ratioP1;P1;durP2;ratioP2;P2;SDS_P1;SDS_P2;PMS_P1;PMS_P2;Temp;Humidity;BMP_temperature;BMP_pressure;BME280_temperature;BME280_humidity;BME280_pressure;Samples;Min_cycle;Max_cycle;Signal;HPM_P1;HPM_P2
2023/10/14 00:02:20;;;;;;;57.38;30.67;;;17.70;79.10;;;;;;5058162;28;20366;-68
2023/10/14 00:04:53;;;;;;;65.82;33.13;;;17.60;79.20;;;;;;5058047;28;20036;-67
2023/10/14 00:07:24;;;;;;;60.60;33.92;;;17.60;79.40;;;;;;5058010;28;20382;-67
2023/10/14 00:09:57;;;;;;;66.43;35.28;;;17.50;79.50;;;;;;5058046;28;20078;-67
2023/10/14 00:12:32;;;;;;;60.95;31.77;;;17.50;79.70;;;;;;5057880;28;20024;-67
2023/10/14 00:15:04;;;;;;;55.58;29.90;;;17.40;79.80;;;;;;5057954;28;20021;-68
2023/10/14 00:17:41;;;;;;;52.50;29.67;;;17.40;79.90;;;;;;5057860;28;20029;-67
2023/10/14 00:20:10;;;;;;;55.08;30.23;;;17.40;79.90;;;;;;5057788;28;20429;-67
2023/10/14 00:22:39;;;;;;;55.55;31.25;;;17.40;79.90;;;;;;5057836;28;20544;-67
2023/10/14 00:25:18;;;;;;;48.00;26.70;;;17.40;79.90;;;;;;5057702;28;20083;-67
2023/10/14 00:27:50;;;;;;;52.45;29.42;;;17.40;79.80;;;;;;5057648;28;20032;-67
2023/10/14 00:30:20;;;;;;;51.20;27.45;;;17.40;79.80;;;;;;5057526;28;20037;-67
2023/10/14 00:32:46;;;;;;;51.17;27.83;;;17.40;79.90;;;;;;5057487;28;20369;-67
2023/10/14 00:35:19;;;;;;;49.60;28.92;;;17.30;80.10;;;;;;5040172;28;20366;-67
2023/10/14 00:37:51;;;;;;;47.55;27.08;;;17.40;80.20;;;;;;5057813;28;20029;-67
2023/10/14 00:40:23;;;;;;;50.63;27.08;;;17.30;80.10;;;;;;5057413;28;20060;-67
2023/10/14 00:42:51;;;;;;;49.22;28.58;;;17.40;80.10;;;;;;5057408;28;20032;-67
2023/10/14 00:45:21;;;;;;;50.03;27.95;;;17.30;80.00;;;;;;5056952;28;20056;-67
2023/10/14 00:47:50;;;;;;;49.55;27.33;;;17.30;80.00;;;;;;5057891;28;20024;-67
2023/10/14 00:50:35;;;;;;;58.22;30.52;;;17.30;80.00;;;;;;5057158;28;20037;-67
2023/10/14 00:53:05;;;;;;;51.20;27.05;;;17.30;80.20;;;;;;5057758;28;20334;-67
2023/10/14 00:56:18;;;;;;;47.03;25.88;;;17.40;80.10;;;;;;5024349;28;20438;-67
2023/10/14 00:58:24;;;;;;;50.67;26.92;;;17.40;80.10;;;;;;5040892;28;20025;-67
2023/10/14 01:01:07;;;;;;;48.88;27.30;;;17.50;79.70;;;;;;5056616;28;20063;-67
2023/10/14 01:03:36;;;;;;;51.90;26.20;;;17.50;79.40;;;;;;5057661;28;20442;-67
2023/10/14 01:08:52;;;;;;;47.65;25.95;;;17.40;79.30;;;;;;5057484;28;20036;-67
2023/10/14 01:11:24;;;;;;;48.30;26.42;;;17.40;79.40;;;;;;5057441;28;20074;-67
2023/10/14 01:14:04;;;;;;;49.08;26.67;;;17.40;79.40;;;;;;5057393;28;20036;-67
2023/10/14 01:16:34;;;;;;;51.60;27.90;;;17.40;79.30;;;;;;5039289;28;20033;-67
2023/10/14 01:19:03;;;;;;;50.58;28.33;;;17.40;79.20;;;;;;5056816;28;20131;-67
2023/10/14 01:21:31;;;;;;;44.50;26.10;;;17.30;79.30;;;;;;5056717;28;20442;-67
2023/10/14 01:23:59;;;;;;;49.22;26.63;;;17.20;79.20;;;;;;5056583;28;20029;-67
2023/10/14 01:26:32;;;;;;;49.85;27.50;;;17.20;79.20;;;;;;5057128;28;20029;-67
2023/10/14 01:29:06;;;;;;;44.58;26.30;;;17.10;79.40;;;;;;5056418;28;20094;-67
2023/10/14 01:31:50;;;;;;;47.75;25.27;;;17.10;79.40;;;;;;5056483;28;20425;-67
2023/10/14 01:34:24;;;;;;;44.42;25.75;;;17.10;79.50;;;;;;5056358;28;20405;-67
2023/10/14 01:37:14;;;;;;;45.67;26.05;;;17.10;79.40;;;;;;5056671;28;20025;-67
2023/10/14 01:39:48;;;;;;;47.42;26.30;;;17.10;79.30;;;;;;5056226;28;20021;-67
2023/10/14 01:42:16;;;;;;;48.72;26.83;;;17.10;79.40;;;;;;5056568;28;20044;-67
2023/10/14 01:44:44;;;;;;;49.50;28.23;;;17.00;79.40;;;;;;5038709;28;20071;-67
2023/10/14 01:47:12;;;;;;;47.17;26.27;;;17.00;79.50;;;;;;5056046;28;20049;-67
2023/10/14 01:49:41;;;;;;;44.03;25.70;;;17.00;79.50;;;;;;5056402;28;20017;-67
2023/10/14 01:52:14;;;;;;;52.55;27.92;;;17.00;79.60;;;;;;5056267;28;20033;-67
2023/10/14 01:54:50;;;;;;;56.92;30.33;;;17.00;79.60;;;;;;5056258;28;20043;-67
2023/10/14 01:57:18;;;;;;;50.20;27.77;;;16.90;79.80;;;;;;5055926;28;20025;-68
2023/10/14 02:03:05;;;;;;;49.67;26.73;;;16.90;79.80;;;;;;5056252;28;20039;-67
2023/10/14 02:05:40;;;;;;;48.25;26.50;;;16.90;79.90;;;;;;5056206;28;20098;-68
2023/10/14 02:08:31;;;;;;;47.75;26.33;;;16.90;79.70;;;;;;5055820;28;20025;-67
2023/10/14 02:10:59;;;;;;;50.25;27.50;;;16.80;79.50;;;;;;5055794;28;20047;-67
2023/10/14 02:13:25;;;;;;;48.53;26.50;;;16.70;79.50;;;;;;5054889;28;20044;-67
2023/10/14 02:15:59;;;;;;;44.35;25.02;;;16.60;79.50;;;;;;5055732;28;20017;-67
2023/10/14 02:18:30;;;;;;;44.13;25.40;;;16.60;79.60;;;;;;5055651;28;20087;-67
2023/10/14 02:21:06;;;;;;;42.80;25.45;;;16.60;79.60;;;;;;5055499;28;20353;-67
2023/10/14 02:23:51;;;;;;;43.17;25.52;;;16.50;79.70;;;;;;5056389;28;20031;-67
2023/10/14 02:26:22;;;;;;;44.53;25.20;;;16.50;79.70;;;;;;5056141;28;20071;-67
2023/10/14 02:28:52;;;;;;;43.13;24.83;;;16.50;79.70;;;;;;5037871;28;20029;-67
2023/10/14 02:31:44;;;;;;;45.15;24.63;;;16.50;79.80;;;;;;5055523;28;20028;-67
2023/10/14 02:34:08;;;;;;;39.80;22.20;;;16.50;80.00;;;;;;5054081;28;20061;-67
2023/10/14 02:36:51;;;;;;;43.78;26.40;;;16.40;79.90;;;;;;5055242;28;20033;-67
2023/10/14 02:39:27;;;;;;;42.37;24.50;;;16.40;79.80;;;;;;5055278;28;20031;-67
2023/10/14 02:44:44;;;;;;;44.58;25.27;;;16.40;80.10;;;;;;5040195;28;20043;-67
2023/10/14 02:47:10;;;;;;;49.00;26.98;;;16.40;80.20;;;;;;5055916;28;20052;-67
2023/10/14 02:49:38;;;;;;;47.22;25.25;;;16.40;79.90;;;;;;5037635;28;20164;-67
2023/10/14 02:52:10;;;;;;;42.92;23.83;;;16.30;79.70;;;;;;5038374;28;20033;-67
2023/10/14 02:54:40;;;;;;;53.10;26.67;;;16.20;79.60;;;;;;5038272;28;20037;-67
2023/10/14 02:57:26;;;;;;;48.00;26.67;;;16.10;79.90;;;;;;5055188;28;20480;-67
2023/10/14 02:59:57;;;;;;;46.53;25.10;;;16.10;80.20;;;;;;5055392;28;20104;-67
2023/10/14 03:02:27;;;;;;;41.42;24.90;;;16.20;81.10;;;;;;5055478;28;20020;-67
2023/10/14 03:07:28;;;;;;;;;;;16.40;79.70;;;;;;5055543;28;20021;-67
2023/10/14 03:10:34;;;;;;;45.33;25.15;;;16.30;79.90;;;;;;5037465;28;19966;-67
2023/10/14 03:13:02;;;;;;;42.25;23.90;;;16.30;79.70;;;;;;5054927;28;20029;-67
2023/10/14 03:15:30;;;;;;;48.75;25.42;;;16.20;79.70;;;;;;5054963;28;20025;-67
2023/10/14 03:18:04;;;;;;;47.80;24.83;;;16.20;79.80;;;;;;5054808;28;20445;-67
2023/10/14 03:23:19;;;;;;;45.13;23.70;;;16.10;80.10;;;;;;5054948;28;19944;-67
2023/10/14 03:25:49;;;;;;;45.42;24.58;;;16.10;80.00;;;;;;5058649;28;20032;-67
2023/10/14 03:28:20;;;;;;;54.75;26.85;;;16.10;80.00;;;;;;5060000;28;20098;-67
2023/10/14 03:30:58;;;;;;;48.35;26.65;;;16.10;80.00;;;;;;5058844;28;20113;-67
2023/10/14 03:33:29;;;;;;;43.35;24.90;;;16.10;79.80;;;;;;5058644;28;20484;-67
2023/10/14 03:36:23;;;;;;;46.65;25.55;;;16.00;79.70;;;;;;5041677;28;20123;-67
2023/10/14 03:39:07;;;;;;;41.67;23.48;;;15.90;79.90;;;;;;5058459;28;20143;-67
2023/10/14 03:41:42;;;;;;;44.80;25.80;;;15.90;80.10;;;;;;5059322;28;20040;-67
2023/10/14 03:44:14;;;;;;;40.42;22.85;;;15.90;80.00;;;;;;5055142;28;20033;-67
2023/10/14 03:46:43;;;;;;;41.40;23.48;;;15.90;80.00;;;;;;5037547;28;20497;-67
2023/10/14 03:49:22;;;;;;;44.35;24.42;;;15.90;80.00;;;;;;5038462;28;20029;-67
2023/10/14 03:51:56;;;;;;;45.35;24.40;;;15.90;80.10;;;;;;5038835;28;20029;-67
2023/10/14 03:54:41;;;;;;;48.50;25.95;;;15.90;80.10;;;;;;5038231;28;20175;-67
2023/10/14 03:57:14;;;;;;;46.60;25.10;;;15.90;80.20;;;;;;5038318;28;20022;-67
2023/10/14 03:59:42;;;;;;;43.63;23.30;;;15.80;80.30;;;;;;5038242;28;20035;-67
2023/10/14 04:02:11;;;;;;;46.63;23.33;;;15.80;80.30;;;;;;5037335;28;20115;-67
2023/10/14 04:04:42;;;;;;;44.22;23.48;;;15.90;80.70;;;;;;5038198;28;20465;-67
2023/10/14 04:09:40;;;;;;;42.50;22.88;;;15.90;79.70;;;;;;5038095;28;20076;-67
2023/10/14 04:12:09;;;;;;;41.03;22.65;;;16.00;79.90;;;;;;5038331;28;20120;-67
2023/10/14 04:14:40;;;;;;;38.28;22.70;;;16.00;79.60;;;;;;5038251;28;20104;-67
2023/10/14 04:17:19;;;;;;;44.47;23.58;;;16.00;79.50;;;;;;5038008;28;20483;-67
2023/10/14 04:19:47;;;;;;;37.92;20.58;;;15.90;79.40;;;;;;5038209;28;20025;-67
2023/10/14 04:22:38;;;;;;;40.70;22.35;;;15.90;79.40;;;;;;5037909;28;20033;-67
2023/10/14 04:30:38;;;;;;;43.22;22.40;;;15.80;79.50;;;;;;5037735;28;20029;-68
2023/10/14 04:35:57;;;;;;;39.45;21.40;;;15.70;79.60;;;;;;5037920;28;20115;-67
2023/10/14 04:38:38;;;;;;;35.65;21.00;;;15.60;79.70;;;;;;5036730;28;20363;-67
2023/10/14 04:41:13;;;;;;;46.60;24.10;;;15.60;79.80;;;;;;5038080;28;20067;-67
2023/10/14 04:44:00;;;;;;;38.65;22.35;;;15.60;79.80;;;;;;5037527;28;20044;-67
2023/10/14 04:46:33;;;;;;;43.00;22.33;;;15.50;79.90;;;;;;5051045;28;20466;-67
2023/10/14 04:49:06;;;;;;;38.65;22.35;;;15.50;79.90;;;;;;5057624;28;20104;-67
2023/10/14 04:51:38;;;;;;;39.78;21.88;;;15.50;79.80;;;;;;5057579;28;20025;-67
2023/10/14 04:54:09;;;;;;;42.58;22.63;;;15.50;79.70;;;;;;5057448;28;20037;-67
2023/10/14 04:56:38;;;;;;;36.22;20.50;;;15.40;79.70;;;;;;5057202;28;20045;-67
2023/10/14 04:59:06;;;;;;;33.10;20.15;;;15.40;79.60;;;;;;5056979;28;20044;-67
2023/10/14 05:01:33;;;;;;;40.80;22.30;;;15.40;79.70;;;;;;5056993;28;20044;-67
2023/10/14 05:04:02;;;;;;;42.97;22.80;;;15.30;79.80;;;;;;5039690;28;20052;-67
2023/10/14 05:06:40;;;;;;;42.97;23.65;;;15.30;79.80;;;;;;5057284;28;20358;-67
2023/10/14 05:09:25;;;;;;;38.60;20.08;;;15.30;79.80;;;;;;5057164;28;20112;-67
2023/10/14 05:11:52;;;;;;;43.20;21.17;;;15.20;79.80;;;;;;5057201;28;20047;-67
2023/10/14 05:14:25;;;;;;;43.35;23.17;;;15.10;79.90;;;;;;5057037;28;20079;-67
2023/10/14 05:19:25;;;;;;;40.88;21.40;;;15.10;80.00;;;;;;5056685;28;20111;-67
2023/10/14 05:22:02;;;;;;;48.25;26.00;;;15.10;79.90;;;;;;5056688;28;20060;-67
2023/10/14 05:24:31;;;;;;;47.15;26.08;;;15.00;79.90;;;;;;5056942;28;20079;-67
2023/10/14 05:27:00;;;;;;;38.20;21.98;;;15.00;79.90;;;;;;5057143;28;20112;-67
2023/10/14 05:29:30;;;;;;;44.58;22.92;;;14.90;80.00;;;;;;5056419;28;20063;-67
2023/10/14 05:32:15;;;;;;;42.13;21.75;;;14.90;80.00;;;;;;5056484;28;20052;-67
2023/10/14 05:34:59;;;;;;;45.08;22.95;;;14.90;80.20;;;;;;5053643;28;20052;-67
2023/10/14 05:37:26;;;;;;;57.38;28.23;;;14.80;80.50;;;;;;5056196;28;20029;-67
2023/10/14 05:39:54;;;;;;;52.05;26.65;;;14.80;81.60;;;;;;5056612;28;20090;-67
2023/10/14 05:42:24;;;;;;;43.65;23.55;;;14.70;81.90;;;;;;5057113;28;20060;-67
2023/10/14 05:45:11;;;;;;;53.00;26.83;;;14.70;81.30;;;;;;5055816;28;20358;-67
2023/10/14 05:47:42;;;;;;;45.67;23.85;;;14.70;81.50;;;;;;5016516;28;20042;-67
2023/10/14 05:52:34;;;;;;;49.58;24.35;;;14.80;81.00;;;;;;5017002;28;20112;-67
2023/10/14 05:55:07;;;;;;;45.95;23.52;;;14.80;81.00;;;;;;5016424;28;20044;-68
2023/10/14 05:57:39;;;;;;;42.28;22.73;;;14.80;80.90;;;;;;5016371;28;20029;-67
2023/10/14 06:00:22;;;;;;;41.70;21.65;;;14.80;81.00;;;;;;5016220;28;20087;-68
2023/10/14 06:02:53;;;;;;;39.75;20.85;;;14.80;80.80;;;;;;5016838;28;20025;-66
2023/10/14 06:05:21;;;;;;;38.30;21.38;;;14.80;80.80;;;;;;5016158;28;20455;-67
2023/10/14 06:07:47;;;;;;;38.67;21.02;;;14.90;81.10;;;;;;5016340;28;20026;-67
2023/10/14 06:10:23;;;;;;;39.05;21.17;;;14.90;81.30;;;;;;5016092;28;20026;-66
2023/10/14 06:12:53;;;;;;;41.25;21.15;;;15.00;81.20;;;;;;5016535;28;20466;-66
2023/10/14 06:15:19;;;;;;;35.70;20.10;;;15.10;81.30;;;;;;5015995;28;20137;-66
2023/10/14 06:17:47;;;;;;;40.25;20.95;;;15.30;81.30;;;;;;5016638;28;20022;-64
2023/10/14 06:20:20;;;;;;;39.05;19.92;;;15.40;81.20;;;;;;5016127;28;20026;-66
2023/10/14 06:22:46;;;;;;;39.47;20.10;;;15.50;81.10;;;;;;5015837;28;20072;-66
2023/10/14 06:25:16;;;;;;;38.10;20.50;;;15.60;81.10;;;;;;5016411;28;20073;-66
2023/10/14 06:27:46;;;;;;;37.42;20.17;;;15.90;81.00;;;;;;5016936;28;20112;-66
2023/10/14 06:30:22;;;;;;;39.15;20.52;;;15.90;81.00;;;;;;5015974;28;20037;-68
2023/10/14 06:32:55;;;;;;;52.55;21.85;;;16.10;80.80;;;;;;5016220;28;20026;-67
2023/10/14 06:35:21;;;;;;;42.60;22.40;;;16.30;80.70;;;;;;5015738;28;20052;-66
2023/10/14 06:37:53;;;;;;;36.63;19.80;;;16.40;80.70;;;;;;5015932;28;20264;-68
2023/10/14 06:40:37;;;;;;;39.38;21.17;;;16.50;80.20;;;;;;5015555;28;20061;-67
2023/10/14 06:43:09;;;;;;;39.70;21.52;;;16.70;80.00;;;;;;5016187;28;20030;-68
2023/10/14 06:45:37;;;;;;;37.25;20.30;;;16.80;79.90;;;;;;5026720;28;20080;-67
2023/10/14 06:48:09;;;;;;;41.42;21.88;;;16.90;79.70;;;;;;5055091;28;20115;-67
2023/10/14 06:50:42;;;;;;;36.38;19.70;;;17.00;79.60;;;;;;5055413;28;20131;-68
2023/10/14 06:53:09;;;;;;;35.55;19.25;;;17.20;79.20;;;;;;5055044;28;20029;-68
2023/10/14 06:55:42;;;;;;;37.25;20.15;;;17.30;79.10;;;;;;5055127;28;20461;-68
2023/10/14 06:58:21;;;;;;;36.88;18.15;;;17.40;78.80;;;;;;5055417;28;20431;-68
2023/10/14 07:00:48;;;;;;;35.72;19.83;;;17.50;78.60;;;;;;5061111;28;20029;-68
2023/10/14 07:03:16;;;;;;;37.25;19.58;;;17.60;78.60;;;;;;5061745;28;20029;-68
2023/10/14 07:05:56;;;;;;;40.83;20.92;;;17.70;78.60;;;;;;5061701;28;20028;-69
2023/10/14 07:08:32;;;;;;;41.70;22.23;;;17.80;78.40;;;;;;5061668;28;20409;-69
2023/10/14 07:11:00;;;;;;;38.33;19.08;;;17.90;78.30;;;;;;5062113;28;20025;-69
2023/10/14 07:13:27;;;;;;;37.67;20.48;;;17.90;78.30;;;;;;5062033;28;20060;-68
2023/10/14 07:15:53;;;;;;;41.92;21.08;;;18.10;78.40;;;;;;5061872;28;20028;-69
2023/10/14 07:18:23;;;;;;;34.38;19.80;;;18.30;78.40;;;;;;5062136;28;20035;-69
2023/10/14 07:21:12;;;;;;;37.75;20.20;;;18.40;78.30;;;;;;5044527;28;20450;-69
2023/10/14 07:23:39;;;;;;;34.92;19.50;;;18.60;78.30;;;;;;5061527;28;20033;-69
2023/10/14 07:26:13;;;;;;;35.53;19.80;;;18.70;77.90;;;;;;5061551;28;20131;-69
2023/10/14 07:28:42;;;;;;;40.53;20.50;;;18.90;77.40;;;;;;5061844;28;20025;-69
2023/10/14 07:31:10;;;;;;;37.58;20.88;;;19.10;77.30;;;;;;5061695;28;20036;-69
2023/10/14 07:33:38;;;;;;;35.95;20.90;;;19.20;77.00;;;;;;5061950;28;20159;-69
2023/10/14 07:36:06;;;;;;;36.45;20.92;;;19.30;77.00;;;;;;5061401;28;20028;-69
2023/10/14 07:38:35;;;;;;;39.65;21.05;;;19.30;76.80;;;;;;5061511;28;20021;-69
2023/10/14 07:41:03;;;;;;;37.38;20.90;;;19.30;76.80;;;;;;5061926;28;20106;-69
2023/10/14 07:43:29;;;;;;;36.28;21.40;;;19.40;76.80;;;;;;5061349;28;20033;-69
2023/10/14 07:45:58;;;;;;;39.53;20.55;;;19.40;76.80;;;;;;5040537;28;20216;-69
2023/10/14 07:48:24;;;;;;;42.92;22.15;;;19.40;76.70;;;;;;5041603;28;20033;-69
2023/10/14 07:50:51;;;;;;;40.38;22.25;;;19.50;76.70;;;;;;5041195;28;20483;-69
2023/10/14 07:53:22;;;;;;;40.53;21.50;;;19.60;76.70;;;;;;5041286;28;20091;-69
2023/10/14 07:55:49;;;;;;;38.30;19.95;;;19.70;76.20;;;;;;5041598;28;20025;-69
2023/10/14 07:58:18;;;;;;;39.25;20.30;;;19.90;76.10;;;;;;5041826;28;20029;-69
2023/10/14 08:00:49;;;;;;;39.28;20.63;;;20.00;75.90;;;;;;5041247;28;20074;-69
2023/10/14 08:03:16;;;;;;;42.00;22.40;;;20.10;75.20;;;;;;5041567;28;20048;-69
2023/10/14 08:05:51;;;;;;;40.38;21.55;;;20.40;75.00;;;;;;5041753;28;20312;-69
2023/10/14 08:08:19;;;;;;;53.92;27.23;;;20.50;75.00;;;;;;5041777;28;20124;-69
2023/10/14 08:10:50;;;;;;;46.97;25.67;;;20.60;74.80;;;;;;5039289;28;20124;-69
2023/10/14 08:13:26;;;;;;;40.38;23.13;;;20.70;74.90;;;;;;5038554;28;20025;-69
2023/10/14 08:15:54;;;;;;;43.90;23.67;;;20.80;74.70;;;;;;5037991;28;20415;-69
2023/10/14 08:18:25;;;;;;;40.33;22.08;;;20.90;74.40;;;;;;5038265;28;20045;-69
2023/10/14 08:20:55;;;;;;;41.78;21.77;;;20.90;74.30;;;;;;5038024;28;20025;-69
2023/10/14 08:23:24;;;;;;;41.70;23.70;;;21.00;74.10;;;;;;5037897;28;20439;-69
2023/10/14 08:25:54;;;;;;;37.70;21.25;;;21.10;73.70;;;;;;5037884;28;20025;-69
2023/10/14 08:28:36;;;;;;;45.10;24.10;;;21.30;73.50;;;;;;5036887;28;20428;-69
2023/10/14 08:31:08;;;;;;;35.33;20.70;;;21.40;73.20;;;;;;5036716;28;20033;-69
2023/10/14 08:33:36;;;;;;;39.80;22.63;;;21.50;72.80;;;;;;5037675;28;20061;-69
2023/10/14 08:36:03;;;;;;;40.83;23.10;;;21.50;72.20;;;;;;5037866;28;20716;-69
2023/10/14 08:38:29;;;;;;;41.85;23.15;;;21.60;72.00;;;;;;5037564;28;20057;-69
2023/10/14 08:40:56;;;;;;;45.72;26.42;;;21.70;71.80;;;;;;5038082;28;20067;-69
2023/10/14 08:43:30;;;;;;;48.63;27.75;;;21.80;71.60;;;;;;5036591;28;20030;-69
2023/10/14 08:45:59;;;;;;;42.53;25.02;;;21.90;70.30;;;;;;5046009;28;20090;-69
2023/10/14 08:48:28;;;;;;;47.10;27.88;;;21.90;70.70;;;;;;5057402;28;20028;-69
2023/10/14 08:50:56;;;;;;;42.55;24.85;;;21.90;70.30;;;;;;5057188;28;20033;-69
2023/10/14 08:53:24;;;;;;;49.25;27.77;;;22.00;70.40;;;;;;5039611;28;20018;-69
2023/10/14 08:55:55;;;;;;;47.72;27.40;;;22.00;69.30;;;;;;5057544;28;20057;-69
2023/10/14 08:58:22;;;;;;;44.67;27.60;;;21.90;68.60;;;;;;5057478;28;20442;-69
2023/10/14 09:00:51;;;;;;;53.08;29.15;;;21.90;69.20;;;;;;5039800;28;20028;-69
2023/10/14 09:03:18;;;;;;;53.08;30.77;;;21.90;69.00;;;;;;5039904;28;20051;-69
2023/10/14 09:05:44;;;;;;;50.10;27.85;;;21.90;68.80;;;;;;5039937;28;20435;-69
2023/10/14 09:08:14;;;;;;;46.83;26.45;;;21.90;68.90;;;;;;5057329;28;20406;-69
2023/10/14 09:10:40;;;;;;;56.22;29.25;;;21.90;69.20;;;;;;5056913;28;20021;-69
2023/10/14 09:13:09;;;;;;;49.42;27.23;;;21.90;68.80;;;;;;5056892;28;20420;-69
2023/10/14 09:15:40;;;;;;;47.90;28.58;;;21.90;68.80;;;;;;5056687;28;20044;-69
2023/10/14 09:18:14;;;;;;;49.58;26.85;;;21.90;68.40;;;;;;5057425;28;20020;-69
2023/10/14 09:20:41;;;;;;;46.25;26.65;;;22.00;68.60;;;;;;5056737;28;20347;-69
2023/10/14 09:23:11;;;;;;;48.95;27.92;;;22.00;68.90;;;;;;5056351;28;20036;-69
2023/10/14 09:25:45;;;;;;;51.88;28.90;;;22.00;68.10;;;;;;5056630;28;20521;-69
2023/10/14 09:28:13;;;;;;;53.60;30.40;;;22.00;68.00;;;;;;5056657;28;20029;-69
2023/10/14 09:30:44;;;;;;;48.95;26.02;;;22.10;67.70;;;;;;5056553;28;20025;-69
2023/10/14 09:33:15;;;;;;;57.42;31.25;;;22.10;68.70;;;;;;5056489;28;20044;-69
2023/10/14 09:35:48;;;;;;;51.38;27.85;;;22.10;67.90;;;;;;5056519;28;20021;-69
2023/10/14 09:38:18;;;;;;;52.58;30.20;;;22.10;68.80;;;;;;5056758;28;20036;-69
2023/10/14 09:40:50;;;;;;;58.08;32.58;;;22.10;69.10;;;;;;5056316;28;20045;-69
2023/10/14 09:43:17;;;;;;;52.22;28.85;;;22.20;69.00;;;;;;5056609;28;20029;-69
2023/10/14 09:45:46;;;;;;;55.63;31.27;;;22.20;68.80;;;;;;5056168;28;20075;-69
2023/10/14 09:48:14;;;;;;;66.00;33.08;;;22.20;68.90;;;;;;5038597;28;20340;-69
2023/10/14 09:50:42;;;;;;;61.20;32.90;;;22.20;68.70;;;;;;5056363;28;20028;-69
2023/10/14 09:53:13;;;;;;;45.78;26.45;;;22.20;68.90;;;;;;5038959;28;20029;-69
2023/10/14 09:55:43;;;;;;;49.90;27.00;;;22.20;69.30;;;;;;5056097;28;20057;-69
2023/10/14 09:58:13;;;;;;;58.60;30.23;;;22.30;69.30;;;;;;5056317;28;20025;-69
2023/10/14 10:00:42;;;;;;;53.20;30.92;;;22.40;68.70;;;;;;5055877;28;20021;-69
2023/10/14 10:03:11;;;;;;;58.78;30.95;;;22.40;68.80;;;;;;5038667;28;20029;-69
2023/10/14 10:05:45;;;;;;;55.53;30.95;;;22.50;68.80;;;;;;5055913;28;20049;-69
2023/10/14 10:08:33;;;;;;;52.83;31.67;;;22.60;68.10;;;;;;5056464;28;20041;-69
2023/10/14 10:11:01;;;;;;;54.50;29.30;;;22.60;68.10;;;;;;5055973;28;20086;-69
2023/10/14 10:13:28;;;;;;;55.80;30.75;;;22.70;68.30;;;;;;5055663;28;20067;-69
2023/10/14 10:16:02;;;;;;;47.40;27.13;;;22.70;68.40;;;;;;5056026;28;20036;-69
2023/10/14 10:18:56;;;;;;;53.38;28.25;;;22.80;68.60;;;;;;5055644;28;20324;-69
2023/10/14 10:21:30;;;;;;;54.53;30.95;;;22.90;68.20;;;;;;5056217;28;20029;-69
2023/10/14 10:24:17;;;;;;;52.03;30.73;;;23.00;68.10;;;;;;5056204;28;20419;-69
2023/10/14 10:27:05;;;;;;;57.05;30.42;;;23.10;67.60;;;;;;5056196;28;20063;-69
2023/10/14 10:29:35;;;;;;;50.95;29.13;;;23.20;68.00;;;;;;5055439;28;20063;-69
2023/10/14 10:32:09;;;;;;;54.58;30.60;;;23.30;68.30;;;;;;5055481;28;20067;-69
2023/10/14 10:35:06;;;;;;;56.47;31.50;;;23.40;68.20;;;;;;5054590;28;20037;-69
2023/10/14 10:37:48;;;;;;;53.88;29.83;;;23.40;66.50;;;;;;5055924;28;20094;-69
2023/10/14 10:40:22;;;;;;;49.55;28.15;;;23.40;67.40;;;;;;5055477;28;20055;-69
2023/10/14 10:42:54;;;;;;;44.88;25.85;;;23.50;67.60;;;;;;5055936;28;20021;-69
2023/10/14 10:45:22;;;;;;;58.42;30.60;;;23.50;67.80;;;;;;5055582;28;20995;-69
2023/10/14 10:47:56;;;;;;;47.28;27.35;;;23.50;67.70;;;;;;5055903;28;20057;-69
2023/10/14 10:50:36;;;;;;;50.63;27.73;;;23.50;67.50;;;;;;5055198;28;20012;-69
2023/10/14 10:53:08;;;;;;;49.38;27.45;;;23.50;67.50;;;;;;5055714;28;20021;-69
2023/10/14 10:55:38;;;;;;;46.80;27.27;;;23.50;67.50;;;;;;5055755;28;20029;-69
2023/10/14 10:58:05;;;;;;;50.88;28.88;;;23.50;67.40;;;;;;5055713;28;20021;-69
2023/10/14 11:00:33;;;;;;;42.28;25.83;;;23.50;67.50;;;;;;5055121;28;20036;-69
2023/10/14 11:03:01;;;;;;;43.72;26.50;;;23.40;67.40;;;;;;5055724;28;20071;-69
2023/10/14 11:05:29;;;;;;;45.45;26.23;;;23.40;67.60;;;;;;5055651;28;20304;-69
2023/10/14 11:07:57;;;;;;;54.00;28.02;;;23.40;67.60;;;;;;5055344;28;20442;-69
2023/10/14 11:10:25;;;;;;;51.08;26.98;;;23.40;67.70;;;;;;5055330;28;20025;-69
2023/10/14 11:13:36;;;;;;;;;;;;;;;;;;;;;
2023/10/14 11:15:56;;;;;;;59.47;33.22;;;23.30;66.20;;;;;;5050296;28;20112;-69
2023/10/14 11:18:21;;;;;;;56.38;30.73;;;23.20;66.00;;;;;;5054974;28;20051;-69
2023/10/14 11:20:48;;;;;;;57.40;31.73;;;23.20;66.50;;;;;;5055183;28;20082;-69
2023/10/14 11:23:16;;;;;;;63.55;33.35;;;23.10;66.50;;;;;;5054983;28;20021;-69
2023/10/14 11:25:46;;;;;;;52.45;31.70;;;23.10;66.60;;;;;;5055216;28;20033;-69
2023/10/14 11:28:14;;;;;;;55.03;31.23;;;23.10;66.70;;;;;;5054931;28;20021;-69
2023/10/14 11:30:46;;;;;;;48.10;27.95;;;23.10;66.90;;;;;;5055116;28;20132;-69
2023/10/14 11:33:23;;;;;;;49.03;28.23;;;23.20;66.90;;;;;;5055313;28;20338;-69
2023/10/14 11:35:51;;;;;;;52.85;29.75;;;23.20;67.10;;;;;;5054820;28;20029;-69
2023/10/14 11:38:17;;;;;;;57.33;31.05;;;23.30;66.60;;;;;;5055327;28;20052;-69
2023/10/14 11:40:45;;;;;;;53.97;28.55;;;23.30;66.30;;;;;;5054749;28;20025;-69
2023/10/14 11:43:11;;;;;;;51.95;30.15;;;23.40;66.50;;;;;;5054819;28;20053;-69
2023/10/14 11:45:44;;;;;;;55.42;31.52;;;23.40;66.10;;;;;;5056130;28;20087;-69
2023/10/14 11:48:25;;;;;;;58.17;31.30;;;23.40;65.10;;;;;;5026696;28;20024;-69
2023/10/14 11:51:11;;;;;;;53.10;30.15;;;23.40;64.70;;;;;;5058533;28;20075;-69
2023/10/14 11:53:45;;;;;;;48.33;27.80;;;23.40;65.10;;;;;;5058684;28;20032;-69
2023/10/14 11:56:16;;;;;;;53.42;28.40;;;23.50;65.10;;;;;;5058668;28;20021;-69
2023/10/14 11:58:43;;;;;;;46.95;27.73;;;23.50;64.80;;;;;;5058333;28;20442;-69
2023/10/14 12:01:10;;;;;;;54.30;28.25;;;23.60;64.70;;;;;;5058143;28;20020;-69
2023/10/14 12:03:40;;;;;;;47.30;27.98;;;23.70;64.60;;;;;;5058186;28;20063;-69
2023/10/14 12:06:11;;;;;;;42.00;24.60;;;23.70;64.50;;;;;;5058443;28;20025;-69
2023/10/14 12:08:38;;;;;;;45.90;27.30;;;23.70;64.60;;;;;;5058085;28;20048;-69
2023/10/14 12:11:05;;;;;;;47.22;25.77;;;23.80;64.30;;;;;;5058070;28;20056;-69
2023/10/14 12:13:32;;;;;;;48.55;25.35;;;23.80;64.50;;;;;;5058250;28;20025;-69
2023/10/14 12:15:58;;;;;;;49.10;28.00;;;23.80;64.70;;;;;;5058252;28;20025;-69
2023/10/14 12:18:24;;;;;;;41.38;23.20;;;23.90;64.70;;;;;;5058287;28;20021;-69
2023/10/14 12:20:50;;;;;;;47.72;28.52;;;23.90;64.60;;;;;;5040306;28;20025;-69
2023/10/14 12:23:18;;;;;;;44.63;26.80;;;23.90;64.10;;;;;;5057886;28;20040;-69
2023/10/14 12:25:51;;;;;;;44.10;26.05;;;23.90;64.10;;;;;;5058092;28;20013;-69
2023/10/14 12:28:25;;;;;;;50.42;28.52;;;24.00;64.30;;;;;;5040223;28;20037;-69
2023/10/14 12:30:59;;;;;;;46.15;26.65;;;24.00;63.70;;;;;;5041205;28;20025;-69
2023/10/14 12:33:31;;;;;;;52.03;29.70;;;24.00;63.70;;;;;;5058190;28;20319;-69
2023/10/14 12:36:06;;;;;;;41.83;25.65;;;24.10;63.30;;;;;;5057587;28;20108;-69
2023/10/14 12:38:42;;;;;;;48.72;27.83;;;24.10;63.50;;;;;;5057509;28;20017;-69
2023/10/14 12:41:13;;;;;;;46.13;27.55;;;24.20;63.70;;;;;;5057395;28;20371;-69
2023/10/14 12:43:50;;;;;;;43.67;25.73;;;24.20;63.30;;;;;;5057514;28;20048;-70
2023/10/14 12:46:30;;;;;;;47.13;28.58;;;24.20;63.10;;;;;;5057348;28;20067;-69
2023/10/14 12:48:56;;;;;;;50.10;29.48;;;24.20;62.30;;;;;;5057034;28;20032;-70
2023/10/14 12:51:25;;;;;;;46.97;27.90;;;24.20;62.30;;;;;;5057890;28;20039;-69
2023/10/14 12:53:57;;;;;;;51.10;29.52;;;24.20;61.50;;;;;;5057164;28;20103;-69
2023/10/14 12:56:26;;;;;;;45.60;26.05;;;24.20;60.90;;;;;;5057242;28;20021;-70
2023/10/14 12:58:56;;;;;;;45.83;25.15;;;24.30;61.70;;;;;;5056580;28;20040;-69
2023/10/14 13:01:23;;;;;;;48.42;28.02;;;24.40;62.00;;;;;;5057451;28;20053;-69
2023/10/14 13:03:56;;;;;;;46.33;26.17;;;24.30;61.40;;;;;;5057138;28;20071;-69
2023/10/14 13:06:44;;;;;;;45.75;28.90;;;24.40;61.50;;;;;;5056872;28;20037;-69
2023/10/14 13:09:14;;;;;;;45.28;23.70;;;24.40;61.30;;;;;;5056942;28;20061;-70
2023/10/14 13:11:43;;;;;;;40.47;23.98;;;24.40;61.40;;;;;;5057034;28;20025;-69
2023/10/14 13:14:10;;;;;;;43.95;24.13;;;24.30;61.50;;;;;;5057095;28;20116;-69
2023/10/14 13:16:37;;;;;;;40.28;24.48;;;24.30;61.40;;;;;;5056929;28;20028;-70
2023/10/14 13:19:04;;;;;;;41.53;23.35;;;24.20;61.40;;;;;;5056768;28;20350;-69
2023/10/14 13:21:31;;;;;;;37.55;22.85;;;24.20;61.60;;;;;;5057078;28;20223;-69
2023/10/14 13:24:04;;;;;;;42.50;24.60;;;24.20;61.80;;;;;;5057304;28;20082;-69